sensor_id;sensor_type;location;lat;lon;timestamp;temperature;humidity
19256;DHT22;9762;52.490;13.410;2022-09-01T00:00:26;19.90;91.30
19256;DHT22;9762;52.490;13.410;2022-09-01T00:02:54;19.90;94.90
19256;DHT22;9762;52.490;13.410;2022-09-01T00:05:20;19.90;95.10
19256;DHT22;9762;52.490;13.410;2022-09-01T00:07:46;19.80;94.90
19256;DHT22;9762;52.490;13.410;2022-09-01T00:10:12;19.80;95.60
19256;DHT22;9762;52.490;13.410;2022-09-01T00:12:38;19.80;91.90
19256;DHT22;9762;52.490;13.410;2022-09-01T00:15:06;19.80;90.10
19256;DHT22;9762;52.490;13.410;2022-09-01T00:17:32;19.80;89.10
19256;DHT22;9762;52.490;13.410;2022-09-01T00:19:58;19.80;89.10
19256;DHT22;9762;52.490;13.410;2022-09-01T00:22:23;19.80;89.50
19256;DHT22;9762;52.490;13.410;2022-09-01T00:24:49;19.90;90.00
19256;DHT22;9762;52.490;13.410;2022-09-01T00:27:15;19.80;90.60
19256;DHT22;9762;52.490;13.410;2022-09-01T00:29:41;19.80;90.10
19256;DHT22;9762;52.490;13.410;2022-09-01T00:32:06;19.80;90.30
19256;DHT22;9762;52.490;13.410;2022-09-01T00:34:32;19.80;90.80
19256;DHT22;9762;52.490;13.410;2022-09-01T00:36:57;19.70;87.40
19256;DHT22;9762;52.490;13.410;2022-09-01T00:39:23;19.70;87.00
19256;DHT22;9762;52.490;13.410;2022-09-01T00:41:48;19.70;87.30
19256;DHT22;9762;52.490;13.410;2022-09-01T00:44:17;19.70;87.70
19256;DHT22;9762;52.490;13.410;2022-09-01T00:46:46;19.80;87.90
19256;DHT22;9762;52.490;13.410;2022-09-01T00:49:35;19.70;87.80
19256;DHT22;9762;52.490;13.410;2022-09-01T00:52:10;19.80;87.90
19256;DHT22;9762;52.490;13.410;2022-09-01T00:54:42;19.80;87.60
19256;DHT22;9762;52.490;13.410;2022-09-01T00:57:10;19.70;89.00
19256;DHT22;9762;52.490;13.410;2022-09-01T00:59:42;19.70;91.20
19256;DHT22;9762;52.490;13.410;2022-09-01T01:02:09;19.60;91.40
19256;DHT22;9762;52.490;13.410;2022-09-01T01:04:35;19.60;91.30
19256;DHT22;9762;52.490;13.410;2022-09-01T01:07:02;19.60;91.40
19256;DHT22;9762;52.490;13.410;2022-09-01T01:09:33;19.60;91.40
19256;DHT22;9762;52.490;13.410;2022-09-01T01:12:02;19.70;91.30
19256;DHT22;9762;52.490;13.410;2022-09-01T01:14:28;19.70;91.30
19256;DHT22;9762;52.490;13.410;2022-09-01T01:16:56;19.70;91.40
19256;DHT22;9762;52.490;13.410;2022-09-01T01:22:13;19.80;91.70
19256;DHT22;9762;52.490;13.410;2022-09-01T01:25:01;19.70;91.90
19256;DHT22;9762;52.490;13.410;2022-09-01T01:27:31;19.70;92.20
19256;DHT22;9762;52.490;13.410;2022-09-01T01:30:00;19.60;92.40
19256;DHT22;9762;52.490;13.410;2022-09-01T01:32:26;19.60;92.30
19256;DHT22;9762;52.490;13.410;2022-09-01T01:34:53;19.60;90.10
19256;DHT22;9762;52.490;13.410;2022-09-01T01:37:20;19.60;90.10
19256;DHT22;9762;52.490;13.410;2022-09-01T01:39:48;19.50;90.40
19256;DHT22;9762;52.490;13.410;2022-09-01T01:42:14;19.50;90.60
19256;DHT22;9762;52.490;13.410;2022-09-01T01:44:40;19.50;91.00
19256;DHT22;9762;52.490;13.410;2022-09-01T01:47:10;19.50;91.10
19256;DHT22;9762;52.490;13.410;2022-09-01T01:49:37;19.50;91.40
19256;DHT22;9762;52.490;13.410;2022-09-01T01:52:04;19.40;91.70
19256;DHT22;9762;52.490;13.410;2022-09-01T01:54:30;19.40;92.10
19256;DHT22;9762;52.490;13.410;2022-09-01T01:56:58;19.40;92.30
19256;DHT22;9762;52.490;13.410;2022-09-01T01:59:24;19.40;92.60
19256;DHT22;9762;52.490;13.410;2022-09-01T02:01:51;19.40;92.70
19256;DHT22;9762;52.490;13.410;2022-09-01T02:04:18;19.40;92.80
19256;DHT22;9762;52.490;13.410;2022-09-01T02:06:44;19.30;92.90
19256;DHT22;9762;52.490;13.410;2022-09-01T02:09:14;19.30;93.10
19256;DHT22;9762;52.490;13.410;2022-09-01T02:11:40;19.30;93.50
19256;DHT22;9762;52.490;13.410;2022-09-01T02:14:07;19.20;93.60
19256;DHT22;9762;52.490;13.410;2022-09-01T02:16:34;19.20;93.60
19256;DHT22;9762;52.490;13.410;2022-09-01T02:19:02;19.20;93.60
19256;DHT22;9762;52.490;13.410;2022-09-01T02:21:28;19.20;93.60
19256;DHT22;9762;52.490;13.410;2022-09-01T02:23:59;19.20;93.60
19256;DHT22;9762;52.490;13.410;2022-09-01T02:26:28;19.20;93.50
19256;DHT22;9762;52.490;13.410;2022-09-01T02:28:58;19.20;93.30
19256;DHT22;9762;52.490;13.410;2022-09-01T02:31:26;19.20;93.20
19256;DHT22;9762;52.490;13.410;2022-09-01T02:33:52;19.20;93.30
19256;DHT22;9762;52.490;13.410;2022-09-01T02:36:19;19.20;93.20
19256;DHT22;9762;52.490;13.410;2022-09-01T02:38:46;19.20;93.10
19256;DHT22;9762;52.490;13.410;2022-09-01T02:41:14;19.20;91.80
19256;DHT22;9762;52.490;13.410;2022-09-01T02:43:40;19.20;92.00
19256;DHT22;9762;52.490;13.410;2022-09-01T02:46:10;19.20;92.10
19256;DHT22;9762;52.490;13.410;2022-09-01T02:48:39;19.20;92.40
19256;DHT22;9762;52.490;13.410;2022-09-01T02:51:11;19.20;92.50
19256;DHT22;9762;52.490;13.410;2022-09-01T02:53:38;19.10;92.70
19256;DHT22;9762;52.490;13.410;2022-09-01T02:56:07;19.10;93.00
19256;DHT22;9762;52.490;13.410;2022-09-01T02:58:40;19.10;93.90
19256;DHT22;9762;52.490;13.410;2022-09-01T03:01:16;19.10;93.90
19256;DHT22;9762;52.490;13.410;2022-09-01T03:03:45;19.10;94.10
19256;DHT22;9762;52.490;13.410;2022-09-01T03:06:10;19.10;94.10
19256;DHT22;9762;52.490;13.410;2022-09-01T03:08:37;19.10;94.20
19256;DHT22;9762;52.490;13.410;2022-09-01T03:11:05;19.10;94.40
19256;DHT22;9762;52.490;13.410;2022-09-01T03:13:32;19.00;94.80
19256;DHT22;9762;52.490;13.410;2022-09-01T03:15:57;19.00;95.30
19256;DHT22;9762;52.490;13.410;2022-09-01T03:18:23;19.00;95.20
19256;DHT22;9762;52.490;13.410;2022-09-01T03:20:48;19.00;90.90
19256;DHT22;9762;52.490;13.410;2022-09-01T03:23:17;18.90;91.80
19256;DHT22;9762;52.490;13.410;2022-09-01T03:25:44;18.80;92.70
19256;DHT22;9762;52.490;13.410;2022-09-01T03:28:13;18.80;93.50
19256;DHT22;9762;52.490;13.410;2022-09-01T03:30:47;18.80;94.20
19256;DHT22;9762;52.490;13.410;2022-09-01T03:33:14;18.70;93.80
19256;DHT22;9762;52.490;13.410;2022-09-01T03:35:42;18.70;93.90
19256;DHT22;9762;52.490;13.410;2022-09-01T03:38:09;18.70;93.30
19256;DHT22;9762;52.490;13.410;2022-09-01T03:40:37;18.70;94.00
19256;DHT22;9762;52.490;13.410;2022-09-01T03:43:06;18.60;94.20
19256;DHT22;9762;52.490;13.410;2022-09-01T03:45:35;18.60;94.60
19256;DHT22;9762;52.490;13.410;2022-09-01T03:48:04;18.60;95.50
19256;DHT22;9762;52.490;13.410;2022-09-01T03:50:39;18.50;93.70
19256;DHT22;9762;52.490;13.410;2022-09-01T03:53:11;18.50;90.10
19256;DHT22;9762;52.490;13.410;2022-09-01T03:55:37;18.50;90.10
19256;DHT22;9762;52.490;13.410;2022-09-01T03:58:06;18.40;90.10
19256;DHT22;9762;52.490;13.410;2022-09-01T04:00:36;18.40;90.20
19256;DHT22;9762;52.490;13.410;2022-09-01T04:03:04;18.40;90.30
19256;DHT22;9762;52.490;13.410;2022-09-01T04:05:33;18.40;90.40
19256;DHT22;9762;52.490;13.410;2022-09-01T04:08:01;18.30;90.50
19256;DHT22;9762;52.490;13.410;2022-09-01T04:10:29;18.30;90.60
19256;DHT22;9762;52.490;13.410;2022-09-01T04:12:57;18.20;90.60
19256;DHT22;9762;52.490;13.410;2022-09-01T04:15:24;18.20;90.80
19256;DHT22;9762;52.490;13.410;2022-09-01T04:17:50;18.20;90.80
19256;DHT22;9762;52.490;13.410;2022-09-01T04:20:39;18.20;90.90
19256;DHT22;9762;52.490;13.410;2022-09-01T04:23:25;18.10;90.90
19256;DHT22;9762;52.490;13.410;2022-09-01T04:25:56;18.10;91.00
19256;DHT22;9762;52.490;13.410;2022-09-01T04:28:30;18.10;91.10
19256;DHT22;9762;52.490;13.410;2022-09-01T04:30:59;18.00;91.10
19256;DHT22;9762;52.490;13.410;2022-09-01T04:33:30;18.10;91.30
19256;DHT22;9762;52.490;13.410;2022-09-01T04:36:04;18.00;91.40
19256;DHT22;9762;52.490;13.410;2022-09-01T04:38:30;18.00;91.40
19256;DHT22;9762;52.490;13.410;2022-09-01T04:40:56;18.00;91.60
19256;DHT22;9762;52.490;13.410;2022-09-01T04:43:25;17.90;91.60
19256;DHT22;9762;52.490;13.410;2022-09-01T04:45:51;17.90;91.60
19256;DHT22;9762;52.490;13.410;2022-09-01T04:48:19;17.90;91.60
19256;DHT22;9762;52.490;13.410;2022-09-01T04:50:47;17.80;91.70
19256;DHT22;9762;52.490;13.410;2022-09-01T04:53:14;17.80;91.80
19256;DHT22;9762;52.490;13.410;2022-09-01T04:55:43;17.80;91.80
19256;DHT22;9762;52.490;13.410;2022-09-01T04:58:11;17.80;91.80
19256;DHT22;9762;52.490;13.410;2022-09-01T05:00:39;17.80;91.80
19256;DHT22;9762;52.490;13.410;2022-09-01T05:03:05;17.80;91.90
19256;DHT22;9762;52.490;13.410;2022-09-01T05:05:47;17.80;91.90
19256;DHT22;9762;52.490;13.410;2022-09-01T05:08:18;17.80;91.90
19256;DHT22;9762;52.490;13.410;2022-09-01T05:10:49;17.80;92.00
19256;DHT22;9762;52.490;13.410;2022-09-01T05:13:17;17.80;92.10
19256;DHT22;9762;52.490;13.410;2022-09-01T05:15:45;17.80;92.10
19256;DHT22;9762;52.490;13.410;2022-09-01T05:18:18;17.70;92.00
19256;DHT22;9762;52.490;13.410;2022-09-01T05:20:49;17.80;92.10
19256;DHT22;9762;52.490;13.410;2022-09-01T05:23:15;17.80;92.10
19256;DHT22;9762;52.490;13.410;2022-09-01T05:25:45;17.80;92.00
19256;DHT22;9762;52.490;13.410;2022-09-01T05:28:11;17.80;92.00
19256;DHT22;9762;52.490;13.410;2022-09-01T05:30:38;17.80;92.00
19256;DHT22;9762;52.490;13.410;2022-09-01T05:33:05;17.90;92.00
19256;DHT22;9762;52.490;13.410;2022-09-01T05:35:39;17.90;92.00
19256;DHT22;9762;52.490;13.410;2022-09-01T05:38:08;17.90;92.10
19256;DHT22;9762;52.490;13.410;2022-09-01T05:40:41;17.90;92.10
19256;DHT22;9762;52.490;13.410;2022-09-01T05:43:12;17.90;92.10
19256;DHT22;9762;52.490;13.410;2022-09-01T05:45:39;17.90;92.10
19256;DHT22;9762;52.490;13.410;2022-09-01T05:48:07;18.00;92.10
19256;DHT22;9762;52.490;13.410;2022-09-01T05:50:34;18.00;92.00
19256;DHT22;9762;52.490;13.410;2022-09-01T05:53:00;18.00;92.00
19256;DHT22;9762;52.490;13.410;2022-09-01T05:55:28;18.10;92.10
19256;DHT22;9762;52.490;13.410;2022-09-01T05:57:59;18.10;92.10
19256;DHT22;9762;52.490;13.410;2022-09-01T06:00:25;18.10;92.00
19256;DHT22;9762;52.490;13.410;2022-09-01T06:02:59;18.10;92.00
19256;DHT22;9762;52.490;13.410;2022-09-01T06:05:25;18.10;91.90
19256;DHT22;9762;52.490;13.410;2022-09-01T06:07:51;18.20;92.00
19256;DHT22;9762;52.490;13.410;2022-09-01T06:10:18;18.20;92.00
19256;DHT22;9762;52.490;13.410;2022-09-01T06:12:43;18.20;92.00
19256;DHT22;9762;52.490;13.410;2022-09-01T06:15:10;18.20;92.00
19256;DHT22;9762;52.490;13.410;2022-09-01T06:17:40;18.20;92.10
19256;DHT22;9762;52.490;13.410;2022-09-01T06:20:06;18.20;92.10
19256;DHT22;9762;52.490;13.410;2022-09-01T06:22:35;18.20;92.10
19256;DHT22;9762;52.490;13.410;2022-09-01T06:25:01;18.20;92.10
19256;DHT22;9762;52.490;13.410;2022-09-01T06:27:32;18.30;92.20
19256;DHT22;9762;52.490;13.410;2022-09-01T06:29:57;18.30;92.20
19256;DHT22;9762;52.490;13.410;2022-09-01T06:32:23;18.30;92.20
19256;DHT22;9762;52.490;13.410;2022-09-01T06:34:50;18.30;92.20
19256;DHT22;9762;52.490;13.410;2022-09-01T06:37:16;18.40;92.10
19256;DHT22;9762;52.490;13.410;2022-09-01T06:39:46;18.50;91.90
19256;DHT22;9762;52.490;13.410;2022-09-01T06:42:12;18.50;92.20
19256;DHT22;9762;52.490;13.410;2022-09-01T06:44:38;18.60;91.80
19256;DHT22;9762;52.490;13.410;2022-09-01T06:47:05;18.70;91.70
19256;DHT22;9762;52.490;13.410;2022-09-01T06:49:32;18.80;91.50
19256;DHT22;9762;52.490;13.410;2022-09-01T06:51:59;18.80;91.40
19256;DHT22;9762;52.490;13.410;2022-09-01T06:54:27;18.80;91.30
19256;DHT22;9762;52.490;13.410;2022-09-01T06:56:58;18.90;91.20
19256;DHT22;9762;52.490;13.410;2022-09-01T06:59:27;18.90;91.10
19256;DHT22;9762;52.490;13.410;2022-09-01T07:01:56;19.00;91.00
19256;DHT22;9762;52.490;13.410;2022-09-01T07:04:26;19.00;90.90
19256;DHT22;9762;52.490;13.410;2022-09-01T07:06:54;19.10;90.90
19256;DHT22;9762;52.490;13.410;2022-09-01T07:09:19;19.10;90.60
19256;DHT22;9762;52.490;13.410;2022-09-01T07:11:45;19.20;90.50
19256;DHT22;9762;52.490;13.410;2022-09-01T07:14:11;19.20;90.30
19256;DHT22;9762;52.490;13.410;2022-09-01T07:16:40;19.30;90.20
19256;DHT22;9762;52.490;13.410;2022-09-01T07:19:08;19.40;90.20
19256;DHT22;9762;52.490;13.410;2022-09-01T07:21:40;19.50;90.10
19256;DHT22;9762;52.490;13.410;2022-09-01T07:24:06;19.60;89.70
19256;DHT22;9762;52.490;13.410;2022-09-01T07:26:33;19.60;89.30
19256;DHT22;9762;52.490;13.410;2022-09-01T07:29:01;19.70;89.70
19256;DHT22;9762;52.490;13.410;2022-09-01T07:31:33;19.70;88.90
19256;DHT22;9762;52.490;13.410;2022-09-01T07:34:05;19.80;88.20
19256;DHT22;9762;52.490;13.410;2022-09-01T07:36:37;19.80;87.80
19256;DHT22;9762;52.490;13.410;2022-09-01T07:39:03;19.90;87.50
19256;DHT22;9762;52.490;13.410;2022-09-01T07:41:29;19.90;87.30
19256;DHT22;9762;52.490;13.410;2022-09-01T07:43:55;20.00;87.10
19256;DHT22;9762;52.490;13.410;2022-09-01T07:46:23;20.10;86.70
19256;DHT22;9762;52.490;13.410;2022-09-01T07:48:52;20.10;86.80
19256;DHT22;9762;52.490;13.410;2022-09-01T07:51:19;20.20;86.10
19256;DHT22;9762;52.490;13.410;2022-09-01T07:53:46;20.30;85.90
19256;DHT22;9762;52.490;13.410;2022-09-01T07:56:14;20.40;86.00
19256;DHT22;9762;52.490;13.410;2022-09-01T07:58:41;20.50;85.40
19256;DHT22;9762;52.490;13.410;2022-09-01T08:01:09;20.50;85.60
19256;DHT22;9762;52.490;13.410;2022-09-01T08:03:36;20.60;84.50
19256;DHT22;9762;52.490;13.410;2022-09-01T08:06:04;20.60;83.50
19256;DHT22;9762;52.490;13.410;2022-09-01T08:08:31;20.70;82.30
19256;DHT22;9762;52.490;13.410;2022-09-01T08:10:57;20.70;81.80
19256;DHT22;9762;52.490;13.410;2022-09-01T08:13:22;20.70;81.90
19256;DHT22;9762;52.490;13.410;2022-09-01T08:15:48;20.80;82.10
19256;DHT22;9762;52.490;13.410;2022-09-01T08:18:14;20.80;82.40
19256;DHT22;9762;52.490;13.410;2022-09-01T08:20:40;20.90;81.70
19256;DHT22;9762;52.490;13.410;2022-09-01T08:23:11;21.00;81.20
19256;DHT22;9762;52.490;13.410;2022-09-01T08:25:38;21.00;81.60
19256;DHT22;9762;52.490;13.410;2022-09-01T08:28:04;21.10;81.70
19256;DHT22;9762;52.490;13.410;2022-09-01T08:30:30;21.10;81.60
19256;DHT22;9762;52.490;13.410;2022-09-01T08:33:00;21.20;81.40
19256;DHT22;9762;52.490;13.410;2022-09-01T08:35:26;21.20;80.40
19256;DHT22;9762;52.490;13.410;2022-09-01T08:37:54;21.30;80.10
19256;DHT22;9762;52.490;13.410;2022-09-01T08:40:21;21.40;80.30
19256;DHT22;9762;52.490;13.410;2022-09-01T08:45:41;21.40;78.30
19256;DHT22;9762;52.490;13.410;2022-09-01T08:48:21;21.50;78.20
19256;DHT22;9762;52.490;13.410;2022-09-01T08:50:58;21.60;77.80
19256;DHT22;9762;52.490;13.410;2022-09-01T08:53:28;21.70;76.90
19256;DHT22;9762;52.490;13.410;2022-09-01T08:55:57;21.70;76.10
19256;DHT22;9762;52.490;13.410;2022-09-01T08:58:23;21.80;74.60
19256;DHT22;9762;52.490;13.410;2022-09-01T09:01:03;21.80;73.10
19256;DHT22;9762;52.490;13.410;2022-09-01T09:03:42;21.80;72.90
19256;DHT22;9762;52.490;13.410;2022-09-01T09:08:50;21.90;73.10
19256;DHT22;9762;52.490;13.410;2022-09-01T09:14:02;22.10;73.50
19256;DHT22;9762;52.490;13.410;2022-09-01T09:16:45;22.10;73.40
19256;DHT22;9762;52.490;13.410;2022-09-01T09:19:21;22.20;73.10
19256;DHT22;9762;52.490;13.410;2022-09-01T09:21:51;22.30;72.70
19256;DHT22;9762;52.490;13.410;2022-09-01T09:24:28;22.40;72.20
19256;DHT22;9762;52.490;13.410;2022-09-01T09:26:57;22.50;71.90
19256;DHT22;9762;52.490;13.410;2022-09-01T09:29:24;22.60;71.00
19256;DHT22;9762;52.490;13.410;2022-09-01T09:32:06;22.70;70.30
19256;DHT22;9762;52.490;13.410;2022-09-01T09:34:36;22.70;70.20
19256;DHT22;9762;52.490;13.410;2022-09-01T09:37:24;22.80;70.20
19256;DHT22;9762;52.490;13.410;2022-09-01T09:42:41;22.90;68.90
19256;DHT22;9762;52.490;13.410;2022-09-01T09:45:22;22.90;69.40
19256;DHT22;9762;52.490;13.410;2022-09-01T09:47:47;22.90;68.40
19256;DHT22;9762;52.490;13.410;2022-09-01T09:50:31;23.00;68.70
19256;DHT22;9762;52.490;13.410;2022-09-01T09:58:21;23.10;68.00
19256;DHT22;9762;52.490;13.410;2022-09-01T10:01:13;23.20;68.00
19256;DHT22;9762;52.490;13.410;2022-09-01T10:03:49;23.30;68.00
19256;DHT22;9762;52.490;13.410;2022-09-01T10:06:37;23.40;67.90
19256;DHT22;9762;52.490;13.410;2022-09-01T10:09:09;23.50;66.70
19256;DHT22;9762;52.490;13.410;2022-09-01T10:11:41;23.50;67.00
19256;DHT22;9762;52.490;13.410;2022-09-01T10:14:28;23.60;66.30
19256;DHT22;9762;52.490;13.410;2022-09-01T10:17:02;23.70;65.20
19256;DHT22;9762;52.490;13.410;2022-09-01T10:19:32;23.80;64.40
19256;DHT22;9762;52.490;13.410;2022-09-01T10:21:58;23.80;64.20
19256;DHT22;9762;52.490;13.410;2022-09-01T10:24:34;23.80;63.20
19256;DHT22;9762;52.490;13.410;2022-09-01T10:27:02;23.80;63.30
19256;DHT22;9762;52.490;13.410;2022-09-01T10:32:20;23.90;61.60
19256;DHT22;9762;52.490;13.410;2022-09-01T10:34:49;23.90;60.60
19256;DHT22;9762;52.490;13.410;2022-09-01T10:37:16;23.90;60.90
19256;DHT22;9762;52.490;13.410;2022-09-01T10:40:11;24.00;60.60
19256;DHT22;9762;52.490;13.410;2022-09-01T10:42:38;24.00;59.90
19256;DHT22;9762;52.490;13.410;2022-09-01T10:47:45;24.00;60.10
19256;DHT22;9762;52.490;13.410;2022-09-01T10:50:30;24.20;60.00
19256;DHT22;9762;52.490;13.410;2022-09-01T10:53:02;24.20;59.80
19256;DHT22;9762;52.490;13.410;2022-09-01T10:55:36;24.20;59.40
19256;DHT22;9762;52.490;13.410;2022-09-01T11:00:46;24.40;59.20
19256;DHT22;9762;52.490;13.410;2022-09-01T11:11:48;31.70;52.60
19256;DHT22;9762;52.490;13.410;2022-09-01T11:14:24;34.20;60.60
19256;DHT22;9762;52.490;13.410;2022-09-01T11:17:15;34.80;53.20
19256;DHT22;9762;52.490;13.410;2022-09-01T11:22:39;34.20;51.50
19256;DHT22;9762;52.490;13.410;2022-09-01T11:30:33;32.70;42.10
19256;DHT22;9762;52.490;13.410;2022-09-01T11:35:42;31.50;43.10
19256;DHT22;9762;52.490;13.410;2022-09-01T11:38:13;30.70;44.00
19256;DHT22;9762;52.490;13.410;2022-09-01T11:40:39;30.00;45.00
19256;DHT22;9762;52.490;13.410;2022-09-01T11:43:14;29.50;45.90
19256;DHT22;9762;52.490;13.410;2022-09-01T11:46:24;29.90;46.30
19256;DHT22;9762;52.490;13.410;2022-09-01T11:48:48;30.80;45.90
19256;DHT22;9762;52.490;13.410;2022-09-01T11:51:14;31.80;45.20
19256;DHT22;9762;52.490;13.410;2022-09-01T11:53:41;33.00;44.40
19256;DHT22;9762;52.490;13.410;2022-09-01T11:56:18;33.50;42.90
19256;DHT22;9762;52.490;13.410;2022-09-01T11:58:45;33.50;41.80
19256;DHT22;9762;52.490;13.410;2022-09-01T12:01:15;33.20;41.40
19256;DHT22;9762;52.490;13.410;2022-09-01T12:03:41;32.50;40.90
19256;DHT22;9762;52.490;13.410;2022-09-01T12:06:09;31.70;41.90
19256;DHT22;9762;52.490;13.410;2022-09-01T12:08:38;30.90;42.70
19256;DHT22;9762;52.490;13.410;2022-09-01T12:13:34;29.80;44.20
19256;DHT22;9762;52.490;13.410;2022-09-01T12:16:04;29.40;61.30
19256;DHT22;9762;52.490;13.410;2022-09-01T12:18:33;29.00;57.20
19256;DHT22;9762;52.490;13.410;2022-09-01T12:21:01;28.60;46.00
19256;DHT22;9762;52.490;13.410;2022-09-01T12:23:35;28.50;46.80
19256;DHT22;9762;52.490;13.410;2022-09-01T12:26:15;28.70;46.80
19256;DHT22;9762;52.490;13.410;2022-09-01T12:28:43;28.70;46.70
19256;DHT22;9762;52.490;13.410;2022-09-01T12:31:23;28.70;46.80
19256;DHT22;9762;52.490;13.410;2022-09-01T12:33:51;28.50;46.90
19256;DHT22;9762;52.490;13.410;2022-09-01T12:36:27;28.30;47.30
19256;DHT22;9762;52.490;13.410;2022-09-01T12:39:17;28.10;47.80
19256;DHT22;9762;52.490;13.410;2022-09-01T12:41:45;27.70;58.00
19256;DHT22;9762;52.490;13.410;2022-09-01T12:47:08;27.00;50.20
19256;DHT22;9762;52.490;13.410;2022-09-01T12:49:39;26.70;50.60
19256;DHT22;9762;52.490;13.410;2022-09-01T12:54:38;26.20;51.60
19256;DHT22;9762;52.490;13.410;2022-09-01T12:57:04;26.00;52.10
19256;DHT22;9762;52.490;13.410;2022-09-01T12:59:30;25.80;52.50
19256;DHT22;9762;52.490;13.410;2022-09-01T13:01:56;25.70;53.00
19256;DHT22;9762;52.490;13.410;2022-09-01T13:04:27;25.60;53.20
19256;DHT22;9762;52.490;13.410;2022-09-01T13:06:59;25.50;53.60
19256;DHT22;9762;52.490;13.410;2022-09-01T13:09:25;25.40;53.70
19256;DHT22;9762;52.490;13.410;2022-09-01T13:11:51;25.30;53.60
19256;DHT22;9762;52.490;13.410;2022-09-01T13:14:17;25.30;53.80
19256;DHT22;9762;52.490;13.410;2022-09-01T13:16:43;25.40;54.00
19256;DHT22;9762;52.490;13.410;2022-09-01T13:19:09;25.50;54.10
19256;DHT22;9762;52.490;13.410;2022-09-01T13:21:35;25.70;54.30
19256;DHT22;9762;52.490;13.410;2022-09-01T13:24:02;26.00;53.80
19256;DHT22;9762;52.490;13.410;2022-09-01T13:26:29;26.40;53.50
19256;DHT22;9762;52.490;13.410;2022-09-01T13:28:56;26.80;52.80
19256;DHT22;9762;52.490;13.410;2022-09-01T13:31:21;27.40;52.60
19256;DHT22;9762;52.490;13.410;2022-09-01T13:33:47;27.80;52.00
19256;DHT22;9762;52.490;13.410;2022-09-01T13:36:13;28.00;51.10
19256;DHT22;9762;52.490;13.410;2022-09-01T13:38:39;28.10;50.60
19256;DHT22;9762;52.490;13.410;2022-09-01T13:41:05;28.20;50.10
19256;DHT22;9762;52.490;13.410;2022-09-01T13:43:31;28.20;49.70
19256;DHT22;9762;52.490;13.410;2022-09-01T13:45:58;28.10;48.70
19256;DHT22;9762;52.490;13.410;2022-09-01T13:48:23;27.90;49.00
19256;DHT22;9762;52.490;13.410;2022-09-01T13:50:50;27.70;49.20
19256;DHT22;9762;52.490;13.410;2022-09-01T13:53:20;27.50;49.50
19256;DHT22;9762;52.490;13.410;2022-09-01T13:55:46;27.40;49.80
19256;DHT22;9762;52.490;13.410;2022-09-01T13:58:11;27.20;50.20
19256;DHT22;9762;52.490;13.410;2022-09-01T14:00:41;27.00;50.30
19256;DHT22;9762;52.490;13.410;2022-09-01T14:03:14;26.80;50.10
19256;DHT22;9762;52.490;13.410;2022-09-01T14:05:44;26.60;50.30
19256;DHT22;9762;52.490;13.410;2022-09-01T14:08:10;26.40;50.30
19256;DHT22;9762;52.490;13.410;2022-09-01T14:10:43;26.40;50.70
19256;DHT22;9762;52.490;13.410;2022-09-01T14:13:10;26.40;50.60
19256;DHT22;9762;52.490;13.410;2022-09-01T14:15:36;26.40;50.40
19256;DHT22;9762;52.490;13.410;2022-09-01T14:18:03;26.40;51.30
19256;DHT22;9762;52.490;13.410;2022-09-01T14:20:33;26.30;51.10
19256;DHT22;9762;52.490;13.410;2022-09-01T14:23:03;26.20;51.60
19256;DHT22;9762;52.490;13.410;2022-09-01T14:25:30;26.10;52.00
19256;DHT22;9762;52.490;13.410;2022-09-01T14:27:58;26.10;52.30
19256;DHT22;9762;52.490;13.410;2022-09-01T14:30:26;26.10;52.40
19256;DHT22;9762;52.490;13.410;2022-09-01T14:32:52;26.20;53.20
19256;DHT22;9762;52.490;13.410;2022-09-01T14:35:20;26.10;52.60
19256;DHT22;9762;52.490;13.410;2022-09-01T14:37:46;26.10;52.80
19256;DHT22;9762;52.490;13.410;2022-09-01T14:40:14;26.20;53.00
19256;DHT22;9762;52.490;13.410;2022-09-01T14:42:41;26.20;52.80
19256;DHT22;9762;52.490;13.410;2022-09-01T14:45:09;26.30;52.60
19256;DHT22;9762;52.490;13.410;2022-09-01T14:47:36;26.40;52.40
19256;DHT22;9762;52.490;13.410;2022-09-01T14:50:02;26.50;52.40
19256;DHT22;9762;52.490;13.410;2022-09-01T14:52:28;26.80;52.20
19256;DHT22;9762;52.490;13.410;2022-09-01T14:54:54;27.10;52.00
19256;DHT22;9762;52.490;13.410;2022-09-01T14:57:20;27.30;51.30
19256;DHT22;9762;52.490;13.410;2022-09-01T14:59:46;27.40;51.10
19256;DHT22;9762;52.490;13.410;2022-09-01T15:02:12;27.50;50.50
19256;DHT22;9762;52.490;13.410;2022-09-01T15:04:38;27.40;50.50
19256;DHT22;9762;52.490;13.410;2022-09-01T15:07:04;27.30;50.30
19256;DHT22;9762;52.490;13.410;2022-09-01T15:09:31;27.30;50.30
19256;DHT22;9762;52.490;13.410;2022-09-01T15:11:56;27.40;50.30
19256;DHT22;9762;52.490;13.410;2022-09-01T15:14:22;27.40;50.10
19256;DHT22;9762;52.490;13.410;2022-09-01T15:16:48;27.50;50.20
19256;DHT22;9762;52.490;13.410;2022-09-01T15:19:13;27.60;50.10
19256;DHT22;9762;52.490;13.410;2022-09-01T15:21:42;27.70;50.00
19256;DHT22;9762;52.490;13.410;2022-09-01T15:24:08;27.70;49.70
19256;DHT22;9762;52.490;13.410;2022-09-01T15:26:35;27.70;49.40
19256;DHT22;9762;52.490;13.410;2022-09-01T15:29:01;27.70;49.30
19256;DHT22;9762;52.490;13.410;2022-09-01T15:31:28;27.60;49.00
19256;DHT22;9762;52.490;13.410;2022-09-01T15:33:56;27.50;48.80
19256;DHT22;9762;52.490;13.410;2022-09-01T15:36:23;27.40;49.00
19256;DHT22;9762;52.490;13.410;2022-09-01T15:38:49;27.40;49.20
19256;DHT22;9762;52.490;13.410;2022-09-01T15:41:24;27.30;49.40
19256;DHT22;9762;52.490;13.410;2022-09-01T15:43:50;27.20;49.40
19256;DHT22;9762;52.490;13.410;2022-09-01T15:46:16;27.10;49.40
19256;DHT22;9762;52.490;13.410;2022-09-01T15:48:42;27.00;49.80
19256;DHT22;9762;52.490;13.410;2022-09-01T15:53:54;26.50;51.10
19256;DHT22;9762;52.490;13.410;2022-09-01T15:56:21;26.30;51.50
19256;DHT22;9762;52.490;13.410;2022-09-01T15:58:47;26.10;51.70
19256;DHT22;9762;52.490;13.410;2022-09-01T16:01:14;26.00;52.30
19256;DHT22;9762;52.490;13.410;2022-09-01T16:03:39;25.90;52.60
19256;DHT22;9762;52.490;13.410;2022-09-01T16:06:05;25.80;52.90
19256;DHT22;9762;52.490;13.410;2022-09-01T16:08:32;25.70;53.10
19256;DHT22;9762;52.490;13.410;2022-09-01T16:10:58;25.50;53.30
19256;DHT22;9762;52.490;13.410;2022-09-01T16:13:24;25.40;53.40
19256;DHT22;9762;52.490;13.410;2022-09-01T16:16:20;25.40;53.60
19256;DHT22;9762;52.490;13.410;2022-09-01T16:18:57;25.30;53.50
19256;DHT22;9762;52.490;13.410;2022-09-01T16:21:40;25.20;53.70
19256;DHT22;9762;52.490;13.410;2022-09-01T16:24:10;25.20;53.70
19256;DHT22;9762;52.490;13.410;2022-09-01T16:26:37;25.20;53.60
19256;DHT22;9762;52.490;13.410;2022-09-01T16:29:11;25.00;53.70
19256;DHT22;9762;52.490;13.410;2022-09-01T16:31:39;24.90;54.10
19256;DHT22;9762;52.490;13.410;2022-09-01T16:34:12;24.80;54.30
19256;DHT22;9762;52.490;13.410;2022-09-01T16:36:50;24.70;54.40
19256;DHT22;9762;52.490;13.410;2022-09-01T16:42:37;24.60;54.70